sensor_id;sensor_type;location;lat;lon;timestamp;temperature;humidity
45313;SHT31;68267;51.540;5.854;2023-06-10T00:01:17;21.3;60.1
45313;SHT31;68267;51.540;5.854;2023-06-10T00:14:36;20.9;60.9
45313;SHT31;68267;51.540;5.854;2023-06-10T00:27:56;20.5;62.0
45313;SHT31;68267;51.540;5.854;2023-06-10T00:41:16;20.1;63.4
45313;SHT31;68267;51.540;5.854;2023-06-10T00:54:35;19.7;64.3
45313;SHT31;68267;51.540;5.854;2023-06-10T01:07:55;19.3;65.1
45313;SHT31;68267;51.540;5.854;2023-06-10T01:21:15;19.0;66.4
45313;SHT31;68267;51.540;5.854;2023-06-10T01:34:34;18.6;67.5
45313;SHT31;68267;51.540;5.854;2023-06-10T01:47:54;18.3;69.4
45313;SHT31;68267;51.540;5.854;2023-06-10T02:01:13;17.9;70.9
45313;SHT31;68267;51.540;5.854;2023-06-10T02:14:33;17.7;72.2
45313;SHT31;68267;51.540;5.854;2023-06-10T02:27:53;17.5;73.1
45313;SHT31;68267;51.540;5.854;2023-06-10T02:41:12;17.2;74.4
45313;SHT31;68267;51.540;5.854;2023-06-10T02:54:32;17.1;74.3
45313;SHT31;68267;51.540;5.854;2023-06-10T03:07:52;16.9;75.4
45313;SHT31;68267;51.540;5.854;2023-06-10T03:21:11;16.6;76.4
45313;SHT31;68267;51.540;5.854;2023-06-10T03:34:31;16.5;77.1
45313;SHT31;68267;51.540;5.854;2023-06-10T03:47:50;16.4;77.6
45313;SHT31;68267;51.540;5.854;2023-06-10T04:01:10;16.5;77.9
45313;SHT31;68267;51.540;5.854;2023-06-10T04:14:29;16.6;77.8
45313;SHT31;68267;51.540;5.854;2023-06-10T04:27:49;16.9;77.5
45313;SHT31;68267;51.540;5.854;2023-06-10T04:41:09;17.4;76.6
45313;SHT31;68267;51.540;5.854;2023-06-10T04:54:28;17.8;74.7
45313;SHT31;68267;51.540;5.854;2023-06-10T05:07:48;18.4;72.2
45313;SHT31;68267;51.540;5.854;2023-06-10T05:21:08;19.0;70.2
45313;SHT31;68267;51.540;5.854;2023-06-10T05:34:27;19.5;67.9
45313;SHT31;68267;51.540;5.854;2023-06-10T05:47:47;20.2;65.5
45313;SHT31;68267;51.540;5.854;2023-06-10T06:01:06;20.9;63.7
45313;SHT31;68267;51.540;5.854;2023-06-10T06:14:26;21.2;62.3
45313;SHT31;68267;51.540;5.854;2023-06-10T06:27:46;22.0;60.6
45313;SHT31;68267;51.540;5.854;2023-06-10T06:41:05;22.9;56.1
45313;SHT31;68267;51.540;5.854;2023-06-10T06:54:25;24.1;54.3
45313;SHT31;68267;51.540;5.854;2023-06-10T07:07:45;25.8;47.1
45313;SHT31;68267;51.540;5.854;2023-06-10T07:21:04;27.0;44.9
45313;SHT31;68267;51.540;5.854;2023-06-10T07:34:24;27.9;41.1
45313;SHT31;68267;51.540;5.854;2023-06-10T07:47:44;29.0;38.7
45313;SHT31;68267;51.540;5.854;2023-06-10T08:01:03;29.9;38.6
45313;SHT31;68267;51.540;5.854;2023-06-10T08:14:23;30.4;36.7
45313;SHT31;68267;51.540;5.854;2023-06-10T08:27:43;30.7;36.7
45313;SHT31;68267;51.540;5.854;2023-06-10T08:41:02;31.8;35.2
45313;SHT31;68267;51.540;5.854;2023-06-10T08:54:22;31.7;35.7
45313;SHT31;68267;51.540;5.854;2023-06-10T09:07:41;31.1;37.6
45313;SHT31;68267;51.540;5.854;2023-06-10T09:21:01;31.0;37.7
45313;SHT31;68267;51.540;5.854;2023-06-10T09:34:21;30.7;36.0
45313;SHT31;68267;51.540;5.854;2023-06-10T09:47:40;31.5;35.1
45313;SHT31;68267;51.540;5.854;2023-06-10T10:01:00;31.4;36.3
45313;SHT31;68267;51.540;5.854;2023-06-10T10:14:20;31.6;34.9
45313;SHT31;68267;51.540;5.854;2023-06-10T10:27:39;32.3;34.8
45313;SHT31;68267;51.540;5.854;2023-06-10T10:40:59;32.5;33.4
45313;SHT31;68267;51.540;5.854;2023-06-10T10:54:18;33.4;32.2
45313;SHT31;68267;51.540;5.854;2023-06-10T11:07:38;32.6;33.6
45313;SHT31;68267;51.540;5.854;2023-06-10T11:20:58;33.0;32.4
45313;SHT31;68267;51.540;5.854;2023-06-10T11:34:17;33.2;32.3
45313;SHT31;68267;51.540;5.854;2023-06-10T11:47:37;34.2;31.6
45313;SHT31;68267;51.540;5.854;2023-06-10T12:00:56;32.8;32.5
45313;SHT31;68267;51.540;5.854;2023-06-10T12:14:16;34.8;30.1
45313;SHT31;68267;51.540;5.854;2023-06-10T12:27:36;35.3;27.9
45313;SHT31;68267;51.540;5.854;2023-06-10T12:40:55;35.2;26.3
45313;SHT31;68267;51.540;5.854;2023-06-10T12:54:15;35.1;26.5
45313;SHT31;68267;51.540;5.854;2023-06-10T13:07:35;34.8;27.1
45313;SHT31;68267;51.540;5.854;2023-06-10T13:20:54;34.6;27.5
45313;SHT31;68267;51.540;5.854;2023-06-10T13:34:14;36.0;26.2
45313;SHT31;68267;51.540;5.854;2023-06-10T13:47:34;34.8;25.8
45313;SHT31;68267;51.540;5.854;2023-06-10T14:00:53;34.0;27.7
45313;SHT31;68267;51.540;5.854;2023-06-10T14:14:13;34.3;27.0
45313;SHT31;68267;51.540;5.854;2023-06-10T14:27:32;34.4;27.1
45313;SHT31;68267;51.540;5.854;2023-06-10T14:40:52;35.1;25.9
45313;SHT31;68267;51.540;5.854;2023-06-10T14:54:12;35.4;26.5
45313;SHT31;68267;51.540;5.854;2023-06-10T15:07:31;35.2;25.8
45313;SHT31;68267;51.540;5.854;2023-06-10T15:20:51;35.4;26.5
45313;SHT31;68267;51.540;5.854;2023-06-10T15:34:11;34.5;27.6
45313;SHT31;68267;51.540;5.854;2023-06-10T15:47:30;34.5;27.3
45313;SHT31;68267;51.540;5.854;2023-06-10T16:00:50;34.8;26.0
45313;SHT31;68267;51.540;5.854;2023-06-10T16:14:10;34.8;26.1
45313;SHT31;68267;51.540;5.854;2023-06-10T16:27:29;34.1;28.0
45313;SHT31;68267;51.540;5.854;2023-06-10T16:40:49;33.3;29.9
45313;SHT31;68267;51.540;5.854;2023-06-10T16:54:08;32.4;31.2
45313;SHT31;68267;51.540;5.854;2023-06-10T17:07:28;33.2;30.2
45313;SHT31;68267;51.540;5.854;2023-06-10T17:20:48;34.0;29.9
45313;SHT31;68267;51.540;5.854;2023-06-10T17:34:07;33.7;29.9
45313;SHT31;68267;51.540;5.854;2023-06-10T17:47:27;32.8;30.9
45313;SHT31;68267;51.540;5.854;2023-06-10T18:00:46;32.4;32.6
45313;SHT31;68267;51.540;5.854;2023-06-10T18:14:06;31.9;34.4
45313;SHT31;68267;51.540;5.854;2023-06-10T18:27:26;31.1;34.5
45313;SHT31;68267;51.540;5.854;2023-06-10T18:40:45;30.6;35.2
45313;SHT31;68267;51.540;5.854;2023-06-10T18:54:05;29.8;37.2
45313;SHT31;68267;51.540;5.854;2023-06-10T19:07:25;29.1;38.8
45313;SHT31;68267;51.540;5.854;2023-06-10T19:20:44;28.4;40.4
45313;SHT31;68267;51.540;5.854;2023-06-10T19:34:04;27.8;42.3
45313;SHT31;68267;51.540;5.854;2023-06-10T19:47:23;27.0;44.4
45313;SHT31;68267;51.540;5.854;2023-06-10T20:00:43;26.3;46.2
45313;SHT31;68267;51.540;5.854;2023-06-10T20:14:03;25.8;47.0
45313;SHT31;68267;51.540;5.854;2023-06-10T20:27:22;25.4;47.4
45313;SHT31;68267;51.540;5.854;2023-06-10T20:40:42;25.0;49.3
45313;SHT31;68267;51.540;5.854;2023-06-10T20:54:02;24.5;51.6
45313;SHT31;68267;51.540;5.854;2023-06-10T21:07:21;23.9;53.9
45313;SHT31;68267;51.540;5.854;2023-06-10T21:20:41;23.3;56.3
45313;SHT31;68267;51.540;5.854;2023-06-10T21:34:00;22.7;57.7
45313;SHT31;68267;51.540;5.854;2023-06-10T21:47:20;22.4;59.4
45313;SHT31;68267;51.540;5.854;2023-06-10T22:00:40;21.9;60.7
45313;SHT31;68267;51.540;5.854;2023-06-10T22:13:59;21.6;61.2
45313;SHT31;68267;51.540;5.854;2023-06-10T22:40:39;21.2;62.6
45313;SHT31;68267;51.540;5.854;2023-06-10T22:53:58;20.9;63.8
45313;SHT31;68267;51.540;5.854;2023-06-10T23:07:18;20.6;65.8
45313;SHT31;68267;51.540;5.854;2023-06-10T23:20:38;20.3;66.9
45313;SHT31;68267;51.540;5.854;2023-06-10T23:33:57;20.1;67.6
45313;SHT31;68267;51.540;5.854;2023-06-10T23:47:17;19.8;68.5
